createdAt,value
2018-12-05T00:00:26.315Z,23.67
2018-12-05T00:02:55.575Z,33.47
2018-12-05T00:05:24.884Z,21.40
2018-12-05T00:07:54.092Z,51.97
2018-12-05T00:10:23.245Z,31.77
2018-12-05T00:12:52.493Z,25.87
2018-12-05T00:15:21.648Z,18.70
2018-12-05T00:17:51.130Z,31.73
2018-12-05T00:20:20.309Z,29.03
2018-12-05T00:22:49.522Z,39.37
2018-12-05T00:25:19.008Z,51.47
2018-12-05T00:27:48.135Z,37.83
2018-12-05T00:30:17.377Z,30.50
2018-12-05T00:32:46.557Z,26.90
2018-12-05T00:35:15.759Z,16.80
2018-12-05T00:37:45.097Z,35.77
2018-12-05T00:40:14.611Z,30.37
2018-12-05T00:42:43.795Z,31.57
2018-12-05T00:45:12.961Z,21.97
2018-12-05T00:47:43.010Z,26.20
2018-12-05T00:50:12.421Z,27.03
2018-12-05T00:52:41.594Z,13.67
2018-12-05T00:55:10.806Z,27.13
2018-12-05T00:57:39.948Z,28.60
2018-12-05T01:00:09.986Z,47.87
2018-12-05T01:02:40.174Z,34.70
2018-12-05T01:05:11.255Z,51.50
2018-12-05T01:07:41.377Z,11.30
2018-12-05T01:10:10.754Z,20.17
2018-12-05T01:12:40.188Z,32.37
2018-12-05T01:15:09.581Z,37.83
2018-12-05T01:17:38.722Z,17.03
2018-12-05T01:20:08.157Z,18.77
2018-12-05T01:22:37.585Z,12.47
2018-12-05T01:25:07.032Z,49.47
2018-12-05T01:27:36.286Z,60.73
2018-12-05T01:30:05.921Z,31.40
2018-12-05T01:32:35.046Z,61.10
2018-12-05T01:35:04.473Z,52.40
2018-12-05T01:37:33.692Z,31.60
2018-12-05T01:40:02.966Z,26.80
2018-12-05T01:42:32.124Z,21.77
2018-12-05T01:45:01.627Z,20.90
2018-12-05T01:47:30.822Z,16.27
2018-12-05T01:49:59.965Z,16.93
2018-12-05T01:52:29.212Z,23.03
2018-12-05T01:54:59.409Z,15.37
2018-12-05T01:57:28.573Z,15.23
2018-12-05T01:59:57.802Z,13.10
2018-12-05T02:02:28.126Z,18.13
2018-12-05T02:04:57.609Z,16.10
2018-12-05T02:07:26.877Z,11.97
2018-12-05T02:09:56.042Z,15.00
2018-12-05T02:12:25.227Z,23.37
2018-12-05T02:14:54.782Z,15.70
2018-12-05T02:17:23.932Z,13.20
2018-12-05T02:19:53.088Z,11.50
2018-12-05T02:22:22.559Z,10.40
2018-12-05T02:24:51.883Z,9.33
2018-12-05T02:27:21.117Z,16.57
2018-12-05T02:29:56.187Z,17.40
2018-12-05T02:32:25.453Z,10.63
2018-12-05T02:34:54.571Z,15.27
2018-12-05T02:37:25.048Z,20.10
2018-12-05T02:39:54.610Z,16.20
2018-12-05T02:42:23.786Z,19.50
2018-12-05T02:44:52.977Z,16.23
2018-12-05T02:47:22.871Z,14.87
2018-12-05T02:49:52.339Z,13.97
2018-12-05T02:52:21.559Z,13.57
2018-12-05T02:54:50.718Z,16.23
2018-12-05T02:57:19.855Z,12.57
2018-12-05T02:59:49.468Z,11.27
2018-12-05T03:02:18.730Z,12.80
2018-12-05T03:04:48.131Z,16.37
2018-12-05T03:07:17.762Z,11.63
2018-12-05T03:09:46.933Z,18.60
2018-12-05T03:12:16.148Z,10.63
2018-12-05T03:14:45.380Z,13.27
2018-12-05T03:17:14.540Z,8.20
2018-12-05T03:19:43.998Z,16.37
2018-12-05T03:22:13.320Z,20.67
2018-12-05T03:24:42.485Z,14.10
2018-12-05T03:27:11.792Z,15.37
2018-12-05T03:29:40.945Z,11.77
2018-12-05T03:32:12.113Z,10.83
2018-12-05T03:34:42.238Z,9.67
2018-12-05T03:37:12.499Z,15.63
2018-12-05T03:39:41.791Z,6.20
2018-12-05T03:42:13.050Z,8.93
2018-12-05T03:44:42.225Z,13.63
2018-12-05T03:47:11.353Z,11.77
2018-12-05T03:49:45.724Z,15.03
2018-12-05T03:52:14.919Z,15.77
2018-12-05T03:54:44.506Z,12.20
2018-12-05T03:57:13.743Z,12.17
2018-12-05T03:59:43.042Z,17.83
2018-12-05T04:02:12.262Z,11.73
2018-12-05T04:04:41.656Z,9.73
2018-12-05T04:07:10.798Z,18.00
2018-12-05T04:09:40.386Z,13.80
2018-12-05T04:12:09.875Z,12.30
2018-12-05T04:14:39.064Z,11.50
2018-12-05T04:17:08.243Z,17.13
2018-12-05T04:19:37.506Z,12.07
2018-12-05T04:22:06.902Z,14.40
2018-12-05T04:24:36.597Z,10.20
2018-12-05T04:27:05.973Z,17.13
2018-12-05T04:29:36.112Z,10.93
2018-12-05T04:32:05.316Z,12.10
2018-12-05T04:34:34.482Z,16.23
2018-12-05T04:37:04.100Z,14.23
2018-12-05T04:39:33.699Z,18.30
2018-12-05T04:42:02.943Z,13.50
2018-12-05T04:44:33.630Z,15.27
2018-12-05T04:47:02.820Z,18.33
2018-12-05T04:49:32.047Z,13.63
2018-12-05T04:52:01.282Z,19.20
2018-12-05T04:54:30.430Z,9.13
2018-12-05T04:57:00.410Z,11.57
2018-12-05T04:59:29.604Z,12.53
2018-12-05T05:01:59.033Z,11.70
2018-12-05T05:04:28.273Z,14.50
2018-12-05T05:06:57.484Z,18.03
2018-12-05T05:09:26.631Z,14.50
2018-12-05T05:11:55.906Z,15.37
2018-12-05T05:14:25.105Z,13.23
2018-12-05T05:16:54.294Z,13.03
2018-12-05T05:19:23.441Z,14.33
2018-12-05T05:21:52.587Z,9.93
2018-12-05T05:24:21.728Z,10.80
2018-12-05T05:26:52.178Z,18.23
2018-12-05T05:29:21.361Z,13.23
2018-12-05T05:31:50.567Z,12.17
2018-12-05T05:34:19.707Z,13.13
2018-12-05T05:36:48.902Z,11.90
2018-12-05T05:39:18.195Z,13.17
2018-12-05T05:41:47.374Z,11.07
2018-12-05T05:44:16.507Z,12.00
2018-12-05T05:46:45.681Z,16.03
2018-12-05T05:49:14.863Z,14.80
2018-12-05T05:51:44.252Z,11.43
2018-12-05T05:54:13.620Z,14.53
2018-12-05T05:56:42.816Z,12.10
2018-12-05T05:59:12.447Z,20.67
2018-12-05T06:01:42.341Z,13.87
2018-12-05T06:04:11.687Z,20.53
2018-12-05T06:06:41.822Z,11.93
2018-12-05T06:09:10.947Z,17.80
2018-12-05T06:11:40.190Z,12.37
2018-12-05T06:14:09.790Z,14.53
2018-12-05T06:16:39.019Z,13.83
2018-12-05T06:19:08.261Z,15.03
2018-12-05T06:21:37.423Z,15.17
2018-12-05T06:24:06.657Z,13.27
2018-12-05T06:26:36.089Z,16.03
2018-12-05T06:29:05.334Z,18.20
2018-12-05T06:31:34.537Z,14.23
2018-12-05T06:34:03.761Z,10.23
2018-12-05T06:36:32.986Z,33.07
2018-12-05T06:39:02.134Z,8.93
2018-12-05T06:41:33.132Z,12.10
2018-12-05T06:44:02.351Z,12.87
2018-12-05T06:46:32.137Z,14.37
2018-12-05T06:49:01.370Z,15.90
2018-12-05T06:51:30.523Z,13.10
2018-12-05T06:53:59.772Z,14.93
2018-12-05T06:56:29.026Z,17.37
2018-12-05T06:58:59.184Z,17.23
2018-12-05T07:01:28.391Z,15.27
2018-12-05T07:03:58.104Z,13.87
2018-12-05T07:06:27.588Z,18.00
2018-12-05T07:08:56.780Z,16.27
2018-12-05T07:11:26.006Z,13.33
2018-12-05T07:13:55.189Z,19.90
2018-12-05T07:16:25.549Z,16.60
2018-12-05T07:18:54.901Z,19.43
2018-12-05T07:21:24.104Z,21.47
2018-12-05T07:23:53.358Z,17.50
2018-12-05T07:26:22.626Z,14.30
2018-12-05T07:28:52.176Z,19.00
2018-12-05T07:31:21.566Z,16.03
2018-12-05T07:33:52.533Z,14.60
2018-12-05T07:36:21.794Z,13.80
2018-12-05T07:38:51.606Z,23.60
2018-12-05T07:41:21.775Z,15.30
2018-12-05T07:43:52.362Z,18.73
2018-12-05T07:46:34.808Z,17.50
2018-12-05T07:49:07.278Z,27.30
2018-12-05T07:51:36.621Z,28.17
2018-12-05T07:54:06.735Z,24.37
2018-12-05T07:56:36.214Z,14.73
2018-12-05T07:59:05.416Z,15.43
2018-12-05T08:01:34.538Z,15.70
2018-12-05T08:04:05.411Z,17.97
2018-12-05T08:06:35.330Z,17.37
2018-12-05T08:09:07.206Z,32.47
2018-12-05T08:11:36.458Z,21.23
2018-12-05T08:14:06.710Z,18.10
2018-12-05T08:16:36.344Z,20.80
2018-12-05T08:19:05.645Z,17.47
2018-12-05T08:21:34.951Z,20.03
2018-12-05T08:24:04.187Z,22.40
2018-12-05T08:26:33.490Z,19.97
2018-12-05T08:29:03.561Z,11.30
2018-12-05T08:31:32.902Z,20.37
2018-12-05T08:34:02.029Z,19.17
2018-12-05T08:36:31.307Z,15.07
2018-12-05T08:39:00.688Z,19.47
2018-12-05T08:41:30.286Z,14.60
2018-12-05T08:44:00.618Z,21.97
2018-12-05T08:46:30.558Z,16.70
2018-12-05T08:49:00.390Z,22.40
2018-12-05T08:51:29.716Z,16.63
2018-12-05T08:53:58.921Z,17.77
2018-12-05T08:56:28.146Z,13.23
2018-12-05T08:58:57.330Z,18.47
2018-12-05T09:01:26.643Z,18.83
2018-12-05T09:03:57.185Z,23.73
2018-12-05T09:06:26.494Z,18.47
2018-12-05T09:08:55.739Z,16.40
2018-12-05T09:11:24.921Z,19.90
2018-12-05T09:13:54.194Z,16.80
2018-12-05T09:16:23.571Z,17.93
2018-12-05T09:18:53.192Z,16.67
2018-12-05T09:21:23.440Z,17.07
2018-12-05T09:23:52.792Z,16.50
2018-12-05T09:26:23.817Z,22.90
2018-12-05T09:28:57.337Z,10.53
2018-12-05T09:31:25.578Z,17.77
2018-12-05T09:33:55.970Z,17.33
2018-12-05T09:36:25.808Z,16.17
2018-12-05T09:38:55.162Z,13.50
2018-12-05T09:41:24.299Z,13.03
2018-12-05T09:43:53.651Z,13.67
2018-12-05T09:46:22.919Z,14.43
2018-12-05T09:48:52.224Z,16.20
2018-12-05T09:51:21.365Z,13.30
2018-12-05T09:53:50.566Z,14.60
2018-12-05T09:56:20.493Z,12.40
2018-12-05T09:58:49.679Z,16.33
2018-12-05T10:01:19.212Z,14.87
2018-12-05T10:03:48.344Z,20.60
2018-12-05T10:06:17.546Z,17.37
2018-12-05T10:08:46.763Z,17.73
2018-12-05T10:11:15.953Z,14.07
2018-12-05T10:13:45.331Z,14.07
2018-12-05T10:16:16.454Z,24.37
2018-12-05T10:18:45.982Z,14.40
2018-12-05T10:21:16.130Z,13.20
2018-12-05T10:23:45.430Z,17.17
2018-12-05T10:26:14.668Z,11.53
2018-12-05T10:28:46.948Z,21.07
2018-12-05T10:31:16.836Z,15.47
2018-12-05T10:33:50.863Z,16.23
2018-12-05T10:36:21.206Z,15.83
2018-12-05T10:38:50.478Z,23.30
2018-12-05T10:41:19.988Z,11.80
2018-12-05T10:43:49.432Z,8.60
2018-12-05T10:46:19.246Z,18.30
2018-12-05T10:48:48.511Z,14.43
2018-12-05T10:51:17.677Z,20.43
2018-12-05T10:53:48.146Z,13.60
2018-12-05T10:56:17.545Z,12.13
2018-12-05T10:58:47.344Z,11.60
2018-12-05T11:01:21.882Z,16.80
2018-12-05T11:03:51.576Z,19.97
2018-12-05T11:06:27.545Z,18.97
2018-12-05T11:09:59.843Z,16.50
2018-12-05T11:12:34.342Z,10.20
2018-12-05T11:15:09.599Z,12.10
2018-12-05T11:17:44.567Z,16.70
2018-12-05T11:20:19.430Z,13.43
2018-12-05T11:22:54.168Z,16.97
2018-12-05T11:25:24.362Z,16.17
2018-12-05T11:27:53.554Z,13.70
2018-12-05T11:30:22.871Z,8.50
2018-12-05T11:32:52.185Z,13.57
2018-12-05T11:35:22.071Z,11.50
2018-12-05T11:37:51.777Z,15.97
2018-12-05T11:40:21.214Z,9.87
2018-12-05T11:42:50.532Z,15.63
2018-12-05T11:45:19.731Z,10.23
2018-12-05T11:47:49.180Z,13.43
2018-12-05T11:50:19.401Z,13.67
2018-12-05T11:52:48.810Z,13.53
2018-12-05T11:55:18.152Z,10.97
2018-12-05T11:57:55.821Z,11.30
2018-12-05T12:00:25.945Z,13.83
2018-12-05T12:02:55.219Z,9.17
2018-12-05T12:05:26.461Z,12.43
2018-12-05T12:07:58.302Z,11.07
2018-12-05T12:10:41.451Z,13.17
2018-12-05T12:13:10.900Z,7.60
2018-12-05T12:15:40.336Z,10.93
2018-12-05T12:18:09.760Z,13.77
2018-12-05T12:20:39.249Z,10.37
2018-12-05T12:23:08.737Z,13.20
2018-12-05T12:25:38.276Z,7.23
2018-12-05T12:28:07.447Z,11.60
2018-12-05T12:30:36.650Z,14.43
2018-12-05T12:33:06.940Z,12.43
2018-12-05T12:35:36.451Z,18.33
2018-12-05T12:38:05.622Z,17.13
2018-12-05T12:40:35.562Z,12.40
2018-12-05T12:43:04.723Z,11.70
2018-12-05T12:45:34.370Z,13.30
2018-12-05T12:48:03.640Z,25.77
2018-12-05T12:50:33.231Z,15.17
2018-12-05T12:53:12.560Z,9.00
2018-12-05T12:55:43.404Z,11.07
2018-12-05T12:58:13.287Z,9.67
2018-12-05T13:00:51.376Z,11.13
2018-12-05T13:03:21.434Z,10.17
2018-12-05T13:05:50.730Z,9.37
2018-12-05T13:08:20.027Z,10.80
2018-12-05T13:10:49.236Z,8.93
2018-12-05T13:13:18.490Z,16.80
2018-12-05T13:15:47.699Z,12.97
2018-12-05T13:18:17.096Z,10.63
2018-12-05T13:20:46.334Z,7.90
2018-12-05T13:23:15.575Z,8.27
2018-12-05T13:25:45.049Z,14.13
2018-12-05T13:35:16.695Z,10.50
2018-12-05T13:37:45.945Z,10.97
2018-12-05T13:40:22.514Z,8.77
2018-12-05T13:42:58.296Z,10.53
2018-12-05T13:45:36.631Z,10.67
2018-12-05T13:48:06.539Z,21.10
2018-12-05T13:50:39.617Z,13.97
2018-12-05T13:53:16.678Z,12.90
2018-12-05T13:55:48.553Z,14.60
2018-12-05T14:00:59.084Z,20.37
2018-12-05T14:03:37.203Z,13.40
2018-12-05T14:06:08.309Z,11.33
2018-12-05T14:08:43.968Z,13.47
2018-12-05T14:11:14.770Z,13.87
2018-12-05T14:13:44.295Z,14.10
2018-12-05T14:16:14.028Z,15.37
2018-12-05T14:18:43.259Z,12.57
2018-12-05T14:21:12.831Z,16.23
2018-12-05T14:23:42.454Z,12.63
2018-12-05T14:26:11.731Z,11.97
2018-12-05T14:28:40.924Z,12.37
2018-12-05T14:31:10.925Z,12.20
2018-12-05T14:33:40.226Z,11.73
2018-12-05T14:36:09.577Z,9.87
2018-12-05T14:38:39.382Z,14.77
2018-12-05T14:41:08.930Z,14.07
2018-12-05T14:43:38.213Z,12.33
2018-12-05T14:46:09.379Z,12.50
2018-12-05T14:48:38.724Z,11.20
2018-12-05T14:51:08.950Z,12.07
2018-12-05T14:53:38.258Z,11.43
2018-12-05T14:56:07.726Z,16.87
2018-12-05T14:58:38.471Z,8.67
2018-12-05T15:01:10.688Z,10.63
2018-12-05T15:03:40.031Z,14.70
2018-12-05T15:06:09.293Z,16.43
2018-12-05T15:08:38.913Z,11.37
2018-12-05T15:11:08.212Z,13.60
2018-12-05T15:13:37.998Z,14.43
2018-12-05T15:16:07.521Z,13.93
2018-12-05T15:18:37.556Z,11.03
2018-12-05T15:21:06.888Z,15.67
2018-12-05T15:23:36.199Z,19.43
2018-12-05T15:26:05.735Z,14.93
2018-12-05T15:28:35.320Z,11.23
2018-12-05T15:31:04.709Z,14.00
2018-12-05T15:33:33.924Z,15.20
2018-12-05T15:36:03.502Z,12.50
2018-12-05T15:38:32.752Z,10.80
2018-12-05T15:41:01.917Z,10.13
2018-12-05T15:43:31.691Z,16.03
2018-12-05T15:46:00.882Z,12.00
2018-12-05T15:48:30.091Z,16.17
2018-12-05T15:50:59.315Z,14.37
2018-12-05T15:53:28.693Z,12.90
2018-12-05T15:55:57.976Z,13.57
2018-12-05T15:58:27.186Z,18.37
2018-12-05T16:00:56.610Z,17.33
2018-12-05T16:03:25.977Z,24.23
2018-12-05T16:05:55.254Z,18.23
2018-12-05T16:08:24.402Z,34.27
2018-12-05T16:10:53.684Z,29.07
2018-12-05T16:13:22.970Z,16.87
2018-12-05T16:15:52.319Z,20.00
2018-12-05T16:18:21.533Z,21.70
2018-12-05T16:20:50.701Z,13.93
2018-12-05T16:23:20.278Z,15.77
2018-12-05T16:25:49.494Z,16.90
2018-12-05T16:28:18.924Z,24.83
2018-12-05T16:30:48.183Z,19.70
2018-12-05T16:33:17.613Z,21.20
2018-12-05T16:35:46.902Z,15.23
2018-12-05T16:38:16.563Z,21.33
2018-12-05T16:40:46.070Z,22.57
2018-12-05T16:43:15.218Z,19.20
2018-12-05T16:45:44.405Z,15.23
2018-12-05T16:48:13.585Z,18.73
2018-12-05T16:50:42.838Z,29.73
2018-12-05T16:53:13.056Z,14.67
2018-12-05T16:55:42.334Z,17.03
2018-12-05T16:58:11.529Z,16.60
2018-12-05T17:00:40.734Z,16.17
2018-12-05T17:03:13.208Z,14.03
2018-12-05T17:05:43.863Z,17.20
2018-12-05T17:08:13.698Z,14.10
2018-12-05T17:10:44.778Z,24.57
2018-12-05T17:13:19.902Z,16.77
2018-12-05T17:15:50.433Z,16.23
2018-12-05T17:18:19.734Z,18.77
2018-12-05T17:20:48.910Z,18.07
2018-12-05T17:23:21.338Z,21.33
2018-12-05T17:25:50.562Z,22.60
2018-12-05T17:28:21.490Z,21.40
2018-12-05T17:30:50.804Z,27.80
2018-12-05T17:33:21.130Z,25.10
2018-12-05T17:35:51.914Z,20.20
2018-12-05T17:38:25.259Z,20.07
2018-12-05T17:40:55.959Z,30.17
2018-12-05T17:43:26.336Z,23.73
2018-12-05T17:45:56.440Z,22.40
2018-12-05T17:48:26.861Z,32.17
2018-12-05T17:50:56.050Z,25.73
2018-12-05T17:53:28.054Z,28.00
2018-12-05T17:55:58.980Z,29.23
2018-12-05T17:58:28.593Z,18.77
2018-12-05T18:00:59.089Z,15.93
2018-12-05T18:03:28.318Z,16.93
2018-12-05T18:05:57.522Z,19.07
2018-12-05T18:08:26.685Z,16.60
2018-12-05T18:10:55.909Z,17.07
2018-12-05T18:13:26.000Z,21.40
2018-12-05T18:15:55.258Z,17.37
2018-12-05T18:18:25.149Z,19.80
2018-12-05T18:20:54.362Z,15.20
2018-12-05T18:23:23.578Z,14.63
2018-12-05T18:25:52.791Z,16.53
2018-12-05T18:28:22.492Z,19.77
2018-12-05T18:30:51.723Z,17.53
2018-12-05T18:33:20.898Z,13.67
2018-12-05T18:35:50.791Z,13.40
2018-12-05T18:38:20.385Z,17.63
2018-12-05T18:40:49.615Z,17.37
2018-12-05T18:43:18.859Z,15.60
2018-12-05T18:45:48.087Z,16.97
2018-12-05T18:48:17.212Z,17.97
2018-12-05T18:50:47.167Z,17.83
2018-12-05T18:53:17.320Z,16.93
2018-12-05T18:55:46.489Z,17.03
2018-12-05T18:58:15.816Z,17.07
2018-12-05T19:00:46.013Z,21.60
2018-12-05T19:03:15.683Z,14.83
2018-12-05T19:05:44.963Z,13.27
2018-12-05T19:08:14.127Z,21.27
2018-12-05T19:10:44.395Z,15.43
2018-12-05T19:13:14.979Z,20.80
2018-12-05T19:15:45.560Z,20.37
2018-12-05T19:18:15.693Z,14.47
2018-12-05T19:20:45.407Z,17.30
2018-12-05T19:23:14.596Z,23.13
2018-12-05T19:25:44.463Z,23.87
2018-12-05T19:28:16.585Z,14.33
2018-12-05T19:30:46.454Z,16.33
2018-12-05T19:33:16.444Z,16.00
2018-12-05T19:35:45.936Z,22.90
2018-12-05T19:38:15.423Z,16.97
2018-12-05T19:40:45.258Z,22.07
2018-12-05T19:43:14.613Z,19.43
2018-12-05T19:45:43.811Z,21.17
2018-12-05T19:48:14.075Z,20.07
2018-12-05T19:50:44.062Z,21.10
2018-12-05T19:53:13.514Z,21.33
2018-12-05T19:55:43.238Z,22.10
2018-12-05T19:58:12.422Z,27.67
2018-12-05T20:00:41.609Z,15.77
2018-12-05T20:03:10.860Z,19.67
2018-12-05T20:05:40.101Z,23.73
2018-12-05T20:08:09.279Z,22.90
2018-12-05T20:10:38.472Z,26.30
2018-12-05T20:13:08.163Z,20.17
2018-12-05T20:15:37.377Z,21.27
2018-12-05T20:18:06.667Z,22.80
2018-12-05T20:20:36.033Z,20.67
2018-12-05T20:23:05.120Z,20.43
2018-12-05T20:25:34.364Z,20.10
2018-12-05T20:28:03.641Z,25.13
2018-12-05T20:30:32.784Z,22.50
2018-12-05T20:33:03.053Z,16.27
2018-12-05T20:35:32.271Z,27.70
2018-12-05T20:38:01.956Z,26.27
2018-12-05T20:40:31.108Z,23.17
2018-12-05T20:43:00.475Z,22.43
2018-12-05T20:45:29.666Z,20.53
2018-12-05T20:47:58.792Z,25.00
2018-12-05T20:50:28.033Z,24.27
2018-12-05T20:52:57.263Z,21.63
2018-12-05T20:55:26.913Z,17.70
2018-12-05T20:57:56.105Z,21.50
2018-12-05T21:00:25.330Z,20.40
2018-12-05T21:02:55.666Z,20.27
2018-12-05T21:05:25.386Z,20.27
2018-12-05T21:07:54.577Z,19.60
2018-12-05T21:10:23.691Z,24.10
2018-12-05T21:12:52.974Z,26.70
2018-12-05T21:15:22.166Z,19.83
2018-12-05T21:17:51.408Z,25.50
2018-12-05T21:20:20.833Z,27.10
2018-12-05T21:22:50.234Z,21.77
2018-12-05T21:25:19.441Z,19.77
2018-12-05T21:27:48.691Z,19.17
2018-12-05T21:30:18.011Z,22.43
2018-12-05T21:32:47.292Z,19.23
2018-12-05T21:35:16.945Z,22.10
2018-12-05T21:37:46.137Z,25.27
2018-12-05T21:40:15.293Z,22.57
2018-12-05T21:42:44.738Z,25.53
2018-12-05T21:45:13.959Z,21.40
2018-12-05T21:47:43.142Z,21.60
2018-12-05T21:50:12.434Z,17.57
2018-12-05T21:52:41.619Z,18.40
2018-12-05T21:55:10.917Z,22.53
2018-12-05T21:57:40.130Z,23.83
2018-12-05T22:00:12.114Z,23.10
2018-12-05T22:02:41.240Z,21.37
2018-12-05T22:05:10.842Z,24.97
2018-12-05T22:07:41.845Z,23.97
2018-12-05T22:10:11.044Z,25.73
2018-12-05T22:12:40.189Z,18.03
2018-12-05T22:15:09.615Z,22.03
2018-12-05T22:17:39.116Z,23.50
2018-12-05T22:20:09.416Z,19.97
2018-12-05T22:22:38.708Z,23.10
2018-12-05T22:25:07.967Z,22.63
2018-12-05T22:27:37.079Z,28.00
2018-12-05T22:30:08.469Z,23.23
2018-12-05T22:32:38.526Z,19.60
2018-12-05T22:35:07.760Z,24.23
2018-12-05T22:37:37.201Z,27.73
2018-12-05T22:40:07.793Z,22.93
2018-12-05T22:42:38.366Z,24.50
2018-12-05T22:45:07.908Z,27.40
2018-12-05T22:47:37.477Z,19.60
2018-12-05T22:50:08.385Z,26.73
2018-12-05T22:52:37.598Z,20.07
2018-12-05T22:55:07.634Z,21.10
2018-12-05T22:57:37.284Z,19.20
2018-12-05T23:00:10.450Z,22.50
2018-12-05T23:02:40.725Z,21.93
2018-12-05T23:05:09.847Z,20.83
2018-12-05T23:07:39.321Z,25.33
2018-12-05T23:10:08.935Z,23.17
2018-12-05T23:12:38.105Z,21.63
2018-12-05T23:15:09.415Z,22.37
2018-12-05T23:17:38.593Z,15.73
2018-12-05T23:20:08.380Z,18.23
2018-12-05T23:22:38.838Z,21.73
2018-12-05T23:25:08.714Z,17.77
2018-12-05T23:27:37.876Z,20.97
2018-12-05T23:30:07.390Z,16.00
2018-12-05T23:32:37.289Z,19.40
2018-12-05T23:35:06.874Z,22.37
2018-12-05T23:37:36.501Z,15.43
2018-12-05T23:40:07.026Z,23.23
2018-12-05T23:42:36.290Z,15.87
2018-12-05T23:45:07.393Z,22.07
2018-12-05T23:47:36.546Z,20.00
2018-12-05T23:50:07.089Z,21.63
2018-12-05T23:52:37.281Z,18.40
2018-12-05T23:55:06.690Z,21.90
2018-12-05T23:57:36.177Z,18.17
